Cottle, West Virginia
Current Conditions -  °F | °C
As of 5:35 AM on Friday 21 Nov 2014 (Local Time) from KLWB Reporting Station
Broken Clouds Broken Clouds  
Wind Chill: 15°   Ceiling: 3100
Heat Index: 24°   Visibility: 10mi
Dew Point: 13°   Wind: 8mph
Humidity: 62%   Direction: 310°NW
Pressure: 30.25"   Gusts: NA
Location:  38.3055°N, 80.6105°W
Report Text: KLWB 211035Z AUTO 31007KT 10SM BKN031 M04/M11 A3025 RMK AO2 T10451108
Loading
Personal Weather Stations






























Interactive Weather Map New forecast layout! Learn more

10-Day Weather Forecast

Advertisements
Track Severe Weather on mobile